Startpagina
METAR-TAF:

METAR-TAF

Vliegvelden :

Vliegbasis Leeuwarden

Leeuwarden, Nederland

breedte: 53-13N, lengte: 005-46E, hoogte: 1 m

Actueel weer

Dit bericht is 1 uur en het 29 minuten geleden gemaakt, om 22:55 UTC
Wind 5 kt uit het westnoordwesten
Temperatuur 17°C
Vochtigheid 94%
Druk 1014 hPa
Zicht 10 km of meer
Weinig wolken op 6400 ft
Gebroken wolken op 7000 ft
Geheel bewolkt op 7700 ft

METAR: EHLW 192255Z AUTO 30005KT 9999 FEW064 BKN070 OVC077 17/16 Q1014 BLU

Tijdstip: 02:24 (00:24 UTC)

Verwachting

Dit bericht is 3 uur en het 55 minuten geleden gemaakt, om 20:29 UTC
Verwachting geldig van 19 om 21 UTC tot 20 om 09 UTC
Wind 6 kt uit het noordwesten
Zicht 10 km of meer
geen wolken onder 1500 m en geen cumulonimbus
Kans 30%
van 20 om 02 UTC tot 20 om 06 UTC
Zicht: 4000 m
nevel, Ondiepe mist

TAF: EHLW 192029Z 1921/2009 31006KT CAVOK PROB30 2002/2006 4000 BR MIFG

Waarnemingen en weersverwachtingen van meer dan 4000 vliegvelden (METAR en TAF).

De beschikbare stations zijn de gele en rode punten op de kaart.

Ga met uw muis naar het station om de naam te zien.

Klik dan om waarnemingen en weersverwachtingen te zien.

kaart wijzigen: klik op de groene knoppen met een zwart kruis om in te zoomen, op de groene knop met een streepje om uit te zoomen of op de groene pijlen voor aangrenzende kaarten.


METAR-TAF: